臺北終端管制區 - 松西席

METAR RCSS 120330Z 09011KT 9999 FEW025 SCT040 27/17 Q1017 NOSIG RMK A3005(A)=

站台狀態:Online
最後更新:2019-11-12 11:30:02